地図

経路データ

SID SEASON NUMBER BASIN SUBBASIN NAME ISO_TIME NATURE LAT LON WMO_WIND WMO_PRES WMO_AGENCY TRACK_TYPE DIST2LAND LANDFALL IFLAG USA_AGENCY USA_ATCF_ID USA_LAT USA_LON USA_RECORD USA_STATUS USA_WIND USA_PRES USA_SSHS USA_R34_NE USA_R34_SE USA_R34_SW USA_R34_NW USA_R50_NE USA_R50_SE USA_R50_SW USA_R50_NW USA_R64_NE USA_R64_SE USA_R64_SW USA_R64_NW USA_POCI USA_ROCI USA_RMW USA_EYE TOKYO_LAT TOKYO_LON TOKYO_GRADE TOKYO_WIND TOKYO_PRES TOKYO_R50_DIR TOKYO_R50_LONG TOKYO_R50_SHORT TOKYO_R30_DIR TOKYO_R30_LONG TOKYO_R30_SHORT TOKYO_LAND CMA_LAT CMA_LON CMA_CAT CMA_WIND CMA_PRES HKO_LAT HKO_LON HKO_CAT HKO_WIND HKO_PRES NEWDELHI_LAT NEWDELHI_LON NEWDELHI_GRADE NEWDELHI_WIND NEWDELHI_PRES NEWDELHI_CI NEWDELHI_DP NEWDELHI_POCI REUNION_LAT REUNION_LON REUNION_TYPE REUNION_WIND REUNION_PRES REUNION_TNUM REUNION_CI REUNION_RMW REUNION_R34_NE REUNION_R34_SE REUNION_R34_SW REUNION_R34_NW REUNION_R50_NE REUNION_R50_SE REUNION_R50_SW REUNION_R50_NW REUNION_R64_NE REUNION_R64_SE REUNION_R64_SW REUNION_R64_NW BOM_LAT BOM_LON BOM_TYPE BOM_WIND BOM_PRES BOM_TNUM BOM_CI BOM_RMW BOM_R34_NE BOM_R34_SE BOM_R34_SW BOM_R34_NW BOM_R50_NE BOM_R50_SE BOM_R50_SW BOM_R50_NW BOM_R64_NE BOM_R64_SE BOM_R64_SW BOM_R64_NW BOM_ROCI BOM_POCI BOM_EYE BOM_POS_METHOD BOM_PRES_METHOD NADI_LAT NADI_LON NADI_CAT NADI_WIND NADI_PRES WELLINGTON_LAT WELLINGTON_LON WELLINGTON_WIND WELLINGTON_PRES DS824_LAT DS824_LON DS824_STAGE DS824_WIND DS824_PRES TD9636_LAT TD9636_LON TD9636_STAGE TD9636_WIND TD9636_PRES TD9635_LAT TD9635_LON TD9635_WIND TD9635_PRES TD9635_ROCI NEUMANN_LAT NEUMANN_LON NEUMANN_CLASS NEUMANN_WIND NEUMANN_PRES MLC_LAT MLC_LON MLC_CLASS MLC_WIND MLC_PRES USA_GUST BOM_GUST BOM_GUST_PER REUNION_GUST REUNION_GUST_PER USA_SEAHGT USA_SEARAD_NE USA_SEARAD_SE USA_SEARAD_SW USA_SEARAD_NW STORM_SPEED STORM_DIR
1970312N12086 1970 143 NI BB NOT_NAMED 1970-11-07 18:00:00 TS 12.1000 86.3000 main 662 654 O________O____ jtwc_io IO151970 12.1000 86.3000 -1 12.1000 86.3000 TC 2 12
1970312N12086 1970 143 NI BB NOT_NAMED 1970-11-07 21:00:00 TS 12.2025 86.3025 main 654 645 P________P____ IO151970 12.2025 86.3025 -1 12.2025 86.3025 TC 2 8
1970312N12086 1970 143 NI BB NOT_NAMED 1970-11-08 00:00:00 TS 12.3000 86.3000 main 645 637 O________O____ jtwc_io IO151970 12.3000 86.3000 -1 12.3000 86.3000 TC 25 2 0
1970312N12086 1970 143 NI BB NOT_NAMED 1970-11-08 03:00:00 TS 12.3933 86.2934 main 637 629 P________PO___ IO151970 12.3925 86.2925 -1 12.3925 86.2925 TC 25 12.4000 86.3000 1 2 0
1970312N12086 1970 143 NI BB NOT_NAMED 1970-11-08 06:00:00 TS 12.5034 86.3069 main 629 621 O________OP___ jtwc_io IO151970 12.5000 86.3000 -1 12.5000 86.3000 TC 25 12.5172 86.3343 1 3 13
1970312N12086 1970 143 NI BB NOT_NAMED 1970-11-08 09:00:00 TS 12.6466 86.3541 main 628 612 P________PP___ IO151970 12.6500 86.3500 -1 12.6500 86.3500 TC 25 12.6375 86.3649 1 3 18
1970312N12086 1970 143 NI BB NOT_NAMED 1970-11-08 12:00:00 TS 12.7880 86.3960 main 612 605 O________OP___ jtwc_io IO151970 12.8000 86.4000 -1 12.8000 86.4000 TC 25 12.7641 86.3881 1 3 11
1970312N12086 1970 143 NI BB NOT_NAMED 1970-11-08 15:00:00 TS 12.8950 86.4050 main 605 597 P________PO___ IO151970 12.8925 86.4075 -1 12.8925 86.4075 TC 25 12.9000 86.4000 1 2 0
1970312N12086 1970 143 NI BB NOT_NAMED 1970-11-08 18:00:00 TS 13.0156 86.3997 main 597 582 O________OP___ jtwc_io IO151970 13.0000 86.4000 -1 13.0000 86.4000 TC 25 13.0469 86.3991 1 3 0
1970312N12086 1970 143 NI BB NOT_NAMED 1970-11-08 21:00:00 TS 13.2000 86.3975 main 582 567 P________PP___ IO151970 13.2000 86.4000 -1 13.2000 86.4000 TC 30 13.2000 86.3926 1 4 358
1970312N12086 1970 143 NI BB NOT_NAMED 1970-11-09 00:00:00 TS 13.3844 86.3966 main 567 560 O________OP___ jtwc_io IO151970 13.4000 86.4000 -1 13.4000 86.4000 TC 35 13.3531 86.3897 1 3 0
1970312N12086 1970 143 NI BB NOT_NAMED 1970-11-09 03:00:00 TS 13.5050 86.3950 main 560 553 P________PO___ IO151970 13.5075 86.3925 -1 13.5075 86.3925 TC 35 13.5000 86.4000 2 2 5
1970312N12086 1970 143 NI BB NOT_NAMED 1970-11-09 06:00:00 TS 13.6107 86.4119 main 553 546 O________OP___ jtwc_io IO151970 13.6000 86.4000 -1 13.6000 86.4000 TC 35 13.6322 86.4356 2 3 12
1970312N12086 1970 143 NI BB NOT_NAMED 1970-11-09 09:00:00 TS 13.7525 86.4566 main 549 542 P________PP___ IO151970 13.7500 86.4425 -1 13.7500 86.4425 TC 35 13.7575 86.4850 2 3 19
1970312N12086 1970 143 NI BB NOT_NAMED 1970-11-09 12:00:00 TS 13.8930 86.5140 main 542 535 O________OP___ jtwc_io IO151970 13.9000 86.5000 -1 13.9000 86.5000 TC 35 13.8791 86.5419 2 3 23
1970312N12086 1970 143 NI BB NOT_NAMED 1970-11-09 15:00:00 TS 14.0000 86.5667 main 542 534 P________PO___ IO151970 14.0000 86.5500 -1 14.0000 86.5500 TC 35 14.0000 86.6000 3 2 25
1970312N12086 1970 143 NI BB NOT_NAMED 1970-11-09 18:00:00 TS 14.1016 86.6126 main 534 526 O________OP___ jtwc_io IO151970 14.1000 86.6000 -1 14.1000 86.6000 TC 35 14.1047 86.6379 3 2 22
1970312N12086 1970 143 NI BB NOT_NAMED 1970-11-09 21:00:00 TS 14.2325 86.6542 main 533 517 P________PP___ IO151970 14.2425 86.6425 -1 14.2425 86.6425 TC 35 14.2125 86.6777 3 3 19
1970312N12086 1970 143 NI BB NOT_NAMED 1970-11-10 00:00:00 TS 14.3797 86.7095 main 517 507 O________OP___ jtwc_io IO151970 14.4000 86.7000 -1 14.4000 86.7000 TC 35 14.3390 86.7286 3 3 24
1970312N12086 1970 143 NI BB NOT_NAMED 1970-11-10 03:00:00 TS 14.5233 86.7900 main 513 501 P________PO___ IO151970 14.5350 86.7850 -1 14.5350 86.7850 TC 35 14.5000 86.8000 3 4 30
1970312N12086 1970 143 NI BB NOT_NAMED 1970-11-10 06:00:00 TS 14.7034 86.9065 main 501 490 O________OP___ jtwc_io IO151970 14.7000 86.9000 -1 14.7000 86.9000 TC 35 14.7101 86.9195 3 5 32
1970312N12086 1970 143 NI BB NOT_NAMED 1970-11-10 09:00:00 TS 14.9367 87.0574 main 496 478 P________PP___ IO151970 14.9275 87.0574 -1 14.9275 87.0574 TC 35 14.9551 87.0572 3 6 29
1970312N12086 1970 143 NI BB NOT_NAMED 1970-11-10 12:00:00 TS 15.2075 87.1971 main 478 462 O________OP___ jtwc_io IO151970 15.2000 87.2000 -1 15.2000 87.2000 TC 35 15.2226 87.1913 3 6 21
1970312N12086 1970 143 NI BB NOT_NAMED 1970-11-10 15:00:00 TS 15.5000 87.2767 main 462 439 P________PO___ IO151970 15.5000 87.2651 -1 15.5000 87.2651 TC 35 15.5000 87.3000 3 6 11
1970312N12086 1970 143 NI BB NOT_NAMED 1970-11-10 18:00:00 TS 15.7825 87.3167 main 439 423 O________OP___ jtwc_io IO151970 15.8000 87.3000 -1 15.8000 87.3000 TC 35 15.7475 87.3499 3 5 9
1970312N12086 1970 143 NI BB NOT_NAMED 1970-11-10 21:00:00 TS 16.0350 87.3626 main 431 407 P________PP___ IO151970 16.0500 87.3575 -1 16.0500 87.3575 TC 50 16.0050 87.3729 3 5 9
1970312N12086 1970 143 NI BB NOT_NAMED 1970-11-11 00:00:00 TS 16.2950 87.3948 main 407 385 O________OP___ jtwc_io IO151970 16.3000 87.4000 -1 16.3000 87.4000 TC 65 16.2850 87.3843 3 6 5
1970312N12086 1970 143 NI BB NOT_NAMED 1970-11-11 03:00:00 TS 16.5800 87.4001 main 385 362 P________PO___ IO151970 16.5700 87.4001 -1 16.5700 87.4001 TC 65 16.6000 87.4000 4 6 0
1970312N12086 1970 143 NI BB NOT_NAMED 1970-11-11 06:00:00 TS 16.9268 87.4129 main 362 319 O________OP___ jtwc_io IO151970 16.9000 87.4000 -1 16.9000 87.4000 TC 65 16.9803 87.4387 4 8 4
1970312N12086 1970 143 NI BB NOT_NAMED 1970-11-11 09:00:00 TS 17.3592 87.4517 main 313 271 P________PP___ IO151970 17.3425 87.4350 -1 17.3425 87.4350 TC 65 17.3925 87.4850 4 9 6
1970312N12086 1970 143 NI BB NOT_NAMED 1970-11-11 12:00:00 TS 17.8028 87.5129 main 271 237 O________OP___ jtwc_io IO151970 17.8000 87.5000 -1 17.8000 87.5000 TC 65 17.8084 87.5388 4 8 10
1970312N12086 1970 143 NI BB NOT_NAMED 1970-11-11 15:00:00 TS 18.1817 87.6000 main 237 216 P________PO___ IO151970 18.1725 87.6000 -1 18.1725 87.6000 TC 65 18.2000 87.6000 4 7 12
1970312N12086 1970 143 NI BB NOT_NAMED 1970-11-11 18:00:00 TS 18.4932 87.6695 main 216 191 O________OP___ jtwc_io IO151970 18.5000 87.7000 -1 18.5000 87.7000 TC 65 18.4796 87.6084 4 6 10
1970312N12086 1970 143 NI BB NOT_NAMED 1970-11-11 21:00:00 TS 18.7747 87.7010 main 191 176 P________PP___ IO151970 18.7925 87.7352 -1 18.7925 87.7352 TC 65 18.7393 87.6326 4 6 9
1970312N12086 1970 143 NI BB NOT_NAMED 1970-11-12 00:00:00 TS 19.0765 87.7718 main 176 160 O________OP___ jtwc_io IO151970 19.1000 87.8000 -1 19.1000 87.8000 TC 65 19.0294 87.7154 4 7 18
1970312N12086 1970 143 NI BB NOT_NAMED 1970-11-12 03:00:00 TS 19.4316 87.9270 main 160 151 P________PO___ IO151970 19.4474 87.9405 -1 19.4474 87.9405 TC 65 19.4000 87.9000 4 9 26
1970312N12086 1970 143 NI BB NOT_NAMED 1970-11-12 06:00:00 TS 19.9209 88.2067 main 153 123 O________OP___ jtwc_io IO151970 19.9000 88.2000 -1 19.9000 88.2000 TC 65 19.9626 88.2200 4 13 30
1970312N12086 1970 143 NI BB NOT_NAMED 1970-11-12 09:00:00 TS 20.5567 88.6139 main 112 44 P________PP___ IO151970 20.5350 88.5972 -1 20.5350 88.5972 TC 65 20.6002 88.6473 4 16 33
1970312N12086 1970 143 NI BB NOT_NAMED 1970-11-12 12:00:00 TS 21.2125 89.1171 main 44 10 O________OP___ jtwc_io IO151970 21.2000 89.1000 -1 21.2000 89.1000 TC 65 21.2375 89.1513 4 16 39
1970312N12086 1970 143 NI BB NOT_NAMED 1970-11-12 15:00:00 TS 21.7682 89.6518 main 0 0 P________PO___ IO151970 21.7524 89.6276 -1 21.7524 89.6276 TC 50 21.8000 89.7000 4 14 46
1970312N12086 1970 143 NI BB NOT_NAMED 1970-11-12 18:00:00 TS 22.2127 90.2260 main 0 0 O________OP___ jtwc_io IO151970 22.2000 90.2000 -1 22.2000 90.2000 TC 35 22.2318 90.2651 4 13 54
1970312N12086 1970 143 NI BB NOT_NAMED 1970-11-12 21:00:00 TS 22.5408 90.8135 main 0 0 P________PP___ IO151970 22.5329 90.7947 -1 22.5329 90.7947 TC 30 22.5512 90.8385 4 12 62
1970312N12086 1970 143 NI BB NOT_NAMED 1970-11-13 00:00:00 TS 22.7975 91.4088 main 0 0 O________OP___ jtwc_io IO151970 22.8000 91.4000 -1 22.8000 91.4000 TC 25 22.7950 91.4175 4 12 67
1970312N12086 1970 143 NI BB NOT_NAMED 1970-11-13 03:00:00 NR 23.0000 92.0000 main 0 __________O___ IO151970 -1 TC 23.0000 92.0000 1 12 70

IBTrACS Databaseについて

本データベースは、米国NOAAが公開する1842年以降の世界の熱帯低気圧のベストトラックデータアーカイブInternational Best Track Archive for Climate Stewardship (IBTrACS)を、ウェブで閲覧しやすい形式に変換したものです。

最終更新日:2021-10-21